Time,TemperatureF,DewpointF,PressureIn,WindDirection,WindDirectionDegrees,WindSpeedMPH,WindSpeedGustMPH,Humidity,HourlyPrecipIn,Conditions,Clouds,dailyrainin,SoftwareType,DateUTC
2013-07-18 00:00:00,77.2,76.0,30.03,ENE,74,0.0,0.0,96,0.00,CLR,,0.00,WeatherDisplay:10.37,2013-07-18 05:00:00,
2013-07-18 00:05:00,77.0,75.8,30.03,ENE,74,0.0,0.0,96,0.00,CLR,,0.00,WeatherDisplay:10.37,2013-07-18 05:05:00,
2013-07-18 00:10:00,77.0,75.8,30.03,ENE,74,0.0,0.0,96,0.00,CLR,,0.00,WeatherDisplay:10.37,2013-07-18 05:10:00,
2013-07-18 00:15:00,77.0,75.8,30.03,ENE,74,0.0,0.0,96,0.00,CLR,,0.00,WeatherDisplay:10.37,2013-07-18 05:15:00,
2013-07-18 00:20:00,77.0,75.8,30.02,ENE,74,0.0,0.0,96,0.00,CLR,,0.00,WeatherDisplay:10.37,2013-07-18 05:20:00,
2013-07-18 00:25:00,76.8,75.6,30.02,ENE,74,0.0,0.0,96,0.00,CLR,,0.00,WeatherDisplay:10.37,2013-07-18 05:25:00,
2013-07-18 00:30:00,76.8,75.6,30.02,ENE,74,0.0,0.0,96,0.00,CLR,,0.00,WeatherDisplay:10.37,2013-07-18 05:30:00,
2013-07-18 00:35:00,76.7,75.5,30.02,ENE,74,0.0,0.0,96,0.00,CLR,,0.00,WeatherDisplay:10.37,2013-07-18 05:35:00,
2013-07-18 00:40:00,76.5,75.3,30.02,ENE,74,0.0,0.0,96,0.00,CLR,,0.00,WeatherDisplay:10.37,2013-07-18 05:40:00,
2013-07-18 00:45:00,76.5,75.3,30.02,ENE,74,0.0,0.0,96,0.00,CLR,,0.00,WeatherDisplay:10.37,2013-07-18 05:45:00,
2013-07-18 00:50:00,76.3,75.1,30.02,ENE,74,0.0,0.0,96,0.00,CLR,,0.00,WeatherDisplay:10.37,2013-07-18 05:50:00,
2013-07-18 00:55:00,76.3,75.1,30.02,ENE,74,0.0,0.0,96,0.00,CLR,,0.00,WeatherDisplay:10.37,2013-07-18 05:55:00,
2013-07-18 01:00:00,76.2,74.9,30.02,ENE,74,0.0,0.0,96,0.00,CLR,,0.00,WeatherDisplay:10.37,2013-07-18 06:00:00,
2013-07-18 01:05:00,76.1,74.9,30.02,ENE,74,0.0,0.0,96,0.00,CLR,,0.00,WeatherDisplay:10.37,2013-07-18 06:05:00,
2013-07-18 01:10:00,76.0,75.1,30.02,ENE,74,0.0,0.0,97,0.00,CLR,,0.00,WeatherDisplay:10.37,2013-07-18 06:10:00,
2013-07-18 01:15:00,76.0,75.1,30.02,ENE,74,0.0,0.0,97,0.00,CLR,,0.00,WeatherDisplay:10.37,2013-07-18 06:15:00,
2013-07-18 01:20:00,75.8,74.6,30.02,ENE,74,0.0,0.0,96,0.00,CLR,,0.00,WeatherDisplay:10.37,2013-07-18 06:20:00,
2013-07-18 01:25:00,75.5,74.3,30.02,ENE,74,0.0,0.0,96,0.00,CLR,,0.00,WeatherDisplay:10.37,2013-07-18 06:25:00,
2013-07-18 01:30:00,75.4,74.2,30.02,ENE,74,0.0,0.0,96,0.00,CLR,,0.00,WeatherDisplay:10.37,2013-07-18 06:30:00,
2013-07-18 01:35:00,75.4,74.5,30.02,ENE,74,0.0,0.0,97,0.00,CLR,,0.00,WeatherDisplay:10.37,2013-07-18 06:35:00,
2013-07-18 01:40:00,75.4,74.5,30.02,ENE,74,0.0,0.0,97,0.00,CLR,,0.00,WeatherDisplay:10.37,2013-07-18 06:40:00,
2013-07-18 01:45:00,75.4,74.5,30.02,ENE,74,0.0,0.0,97,0.00,CLR,,0.00,WeatherDisplay:10.37,2013-07-18 06:45:00,
2013-07-18 01:50:00,75.4,74.5,30.01,ENE,74,0.0,0.0,97,0.00,CLR,,0.00,WeatherDisplay:10.37,2013-07-18 06:50:00,
2013-07-18 01:55:00,75.4,74.5,30.01,ENE,74,0.0,0.0,97,0.00,CLR,,0.00,WeatherDisplay:10.37,2013-07-18 06:55:00,
2013-07-18 02:00:00,75.4,74.5,30.01,ENE,74,0.0,0.0,97,0.00,CLR,,0.00,WeatherDisplay:10.37,2013-07-18 07:00:00,
2013-07-18 02:05:00,75.3,74.7,30.01,ENE,74,0.0,0.0,98,0.00,CLR,,0.00,WeatherDisplay:10.37,2013-07-18 07:05:00,
2013-07-18 02:10:00,75.3,74.7,30.01,ENE,74,0.0,0.0,98,0.00,CLR,,0.00,WeatherDisplay:10.37,2013-07-18 07:10:00,
2013-07-18 02:15:00,75.3,74.7,30.01,ENE,74,0.0,0.0,98,0.00,CLR,,0.00,WeatherDisplay:10.37,2013-07-18 07:15:00,
2013-07-18 02:20:00,75.3,74.7,30.01,ENE,74,0.0,0.0,98,0.00,CLR,,0.00,WeatherDisplay:10.37,2013-07-18 07:20:00,
2013-07-18 02:30:00,75.1,74.5,30.01,ENE,74,0.0,0.0,98,0.00,CLR,,0.00,WeatherDisplay:10.37,2013-07-18 07:30:00,
2013-07-18 02:35:00,75.3,74.7,30.01,ENE,74,0.0,0.0,98,0.00,CLR,,0.00,WeatherDisplay:10.37,2013-07-18 07:35:00,
2013-07-18 02:40:00,75.1,74.5,30.01,ENE,74,0.0,0.0,98,0.00,CLR,,0.00,WeatherDisplay:10.37,2013-07-18 07:40:00,
2013-07-18 02:45:00,75.1,74.5,30.01,ENE,74,0.0,0.0,98,0.00,CLR,,0.00,WeatherDisplay:10.37,2013-07-18 07:45:00,
2013-07-18 02:50:00,75.1,74.5,30.01,ENE,74,0.0,0.0,98,0.00,CLR,,0.00,WeatherDisplay:10.37,2013-07-18 07:50:00,
2013-07-18 02:55:00,74.9,74.3,30.01,ENE,74,0.0,0.0,98,0.00,CLR,,0.00,WeatherDisplay:10.37,2013-07-18 07:55:00,
2013-07-18 03:00:00,74.9,74.3,30.01,ENE,74,0.0,0.0,98,0.00,CLR,,0.00,WeatherDisplay:10.37,2013-07-18 08:00:00,
2013-07-18 03:05:00,74.9,74.3,30.01,ENE,74,0.0,0.0,98,0.00,CLR,,0.00,WeatherDisplay:10.37,2013-07-18 08:05:00,
2013-07-18 03:10:00,74.7,74.1,30.01,ENE,74,0.0,0.0,98,0.00,CLR,,0.00,WeatherDisplay:10.37,2013-07-18 08:10:00,
2013-07-18 03:15:00,74.7,74.1,30.01,ENE,74,0.0,0.0,98,0.00,CLR,,0.00,WeatherDisplay:10.37,2013-07-18 08:15:00,
2013-07-18 03:20:00,74.7,74.1,30.01,ENE,74,0.0,0.0,98,0.00,CLR,,0.00,WeatherDisplay:10.37,2013-07-18 08:20:00,
2013-07-18 03:30:00,74.4,73.8,30.01,ENE,74,0.0,0.0,98,0.00,CLR,,0.00,WeatherDisplay:10.37,2013-07-18 08:30:00,
2013-07-18 03:35:00,74.4,73.8,30.00,ENE,74,0.0,0.0,98,0.00,CLR,,0.00,WeatherDisplay:10.37,2013-07-18 08:35:00,
2013-07-18 03:40:00,74.4,73.8,30.00,ENE,74,0.0,0.0,98,0.00,CLR,,0.00,WeatherDisplay:10.37,2013-07-18 08:40:00,
2013-07-18 03:45:00,74.2,73.6,30.00,ENE,74,0.0,0.0,98,0.00,CLR,,0.00,WeatherDisplay:10.37,2013-07-18 08:45:00,
2013-07-18 03:50:00,74.2,73.6,30.00,ENE,74,0.0,0.0,98,0.00,CLR,,0.00,WeatherDisplay:10.37,2013-07-18 08:50:00,
2013-07-18 03:55:00,74.2,73.6,30.00,ENE,74,0.0,0.0,98,0.00,CLR,,0.00,WeatherDisplay:10.37,2013-07-18 08:55:00,
2013-07-18 04:00:00,74.2,73.6,30.00,ENE,74,0.0,0.0,98,0.00,CLR,,0.00,WeatherDisplay:10.37,2013-07-18 09:00:00,
2013-07-18 04:05:00,74.0,73.4,30.00,ENE,74,0.0,0.0,98,0.00,CLR,,0.00,WeatherDisplay:10.37,2013-07-18 09:05:00,
2013-07-18 04:10:00,73.9,73.3,30.00,ENE,74,0.0,0.0,98,0.00,CLR,,0.00,WeatherDisplay:10.37,2013-07-18 09:10:00,
2013-07-18 04:15:00,73.9,73.6,30.00,ENE,74,0.0,0.0,99,0.00,CLR,,0.00,WeatherDisplay:10.37,2013-07-18 09:15:00,
2013-07-18 04:20:00,73.9,73.6,30.00,ENE,74,0.0,0.0,99,0.00,CLR,,0.00,WeatherDisplay:10.37,2013-07-18 09:20:00,
2013-07-18 04:25:00,73.9,73.6,30.00,ENE,74,0.0,0.0,99,0.00,CLR,,0.00,WeatherDisplay:10.37,2013-07-18 09:25:00,
2013-07-18 04:30:00,73.9,73.6,30.00,ENE,74,0.0,0.0,99,0.00,CLR,,0.00,WeatherDisplay:10.37,2013-07-18 09:30:00,
2013-07-18 04:35:00,73.9,73.6,29.99,ENE,74,0.0,0.0,99,0.00,CLR,,0.00,WeatherDisplay:10.37,2013-07-18 09:35:00,
2013-07-18 04:40:00,73.7,73.4,29.99,ENE,74,0.0,0.0,99,0.00,CLR,,0.00,WeatherDisplay:10.37,2013-07-18 09:40:00,
2013-07-18 04:45:00,73.7,73.4,29.99,ENE,74,0.0,0.0,99,0.00,CLR,,0.00,WeatherDisplay:10.37,2013-07-18 09:45:00,
2013-07-18 04:50:00,73.7,73.4,29.99,ENE,74,0.0,0.0,99,0.00,CLR,,0.00,WeatherDisplay:10.37,2013-07-18 09:50:00,
2013-07-18 04:55:00,73.7,73.4,29.99,ENE,74,0.0,0.0,99,0.00,CLR,,0.00,WeatherDisplay:10.37,2013-07-18 09:55:00,
2013-07-18 05:00:00,73.7,73.4,29.99,ENE,74,0.0,0.0,99,0.00,CLR,,0.00,WeatherDisplay:10.37,2013-07-18 10:00:00,
2013-07-18 05:05:00,73.5,73.2,29.98,ENE,74,0.0,0.0,99,0.00,CLR,,0.00,WeatherDisplay:10.37,2013-07-18 10:05:00,
2013-07-18 05:10:00,73.5,73.2,29.98,ENE,74,0.0,0.0,99,0.00,CLR,,0.00,WeatherDisplay:10.37,2013-07-18 10:10:00,
2013-07-18 05:15:00,73.5,73.2,29.98,ENE,74,0.0,0.0,99,0.00,CLR,,0.00,WeatherDisplay:10.37,2013-07-18 10:15:00,
2013-07-18 05:20:00,73.5,73.2,29.98,ENE,74,0.0,0.0,99,0.00,CLR,,0.00,WeatherDisplay:10.37,2013-07-18 10:20:00,
2013-07-18 05:25:00,73.5,73.2,29.98,ENE,74,0.0,0.0,99,0.00,CLR,,0.00,WeatherDisplay:10.37,2013-07-18 10:25:00,
2013-07-18 05:30:00,73.5,73.2,29.98,ENE,74,0.0,0.0,99,0.00,CLR,,0.00,WeatherDisplay:10.37,2013-07-18 10:30:00,
2013-07-18 05:35:00,73.5,73.2,29.98,ENE,74,0.0,0.0,99,0.00,CLR,,0.00,WeatherDisplay:10.37,2013-07-18 10:35:00,
2013-07-18 05:40:00,73.3,73.0,29.98,ENE,74,0.0,0.0,99,0.00,CLR,,0.00,WeatherDisplay:10.37,2013-07-18 10:40:00,
2013-07-18 05:45:00,73.3,73.0,29.98,ENE,74,0.0,0.0,99,0.00,CLR,,0.00,WeatherDisplay:10.37,2013-07-18 10:45:00,
2013-07-18 05:50:00,73.3,73.0,29.98,ENE,74,0.0,0.0,99,0.00,CLR,,0.00,WeatherDisplay:10.37,2013-07-18 10:50:00,
2013-07-18 05:55:00,73.5,73.2,29.98,ENE,74,0.0,0.0,99,0.00,CLR,,0.00,WeatherDisplay:10.37,2013-07-18 10:55:00,
2013-07-18 06:05:00,73.7,73.7,29.98,ENE,74,0.0,0.0,100,0.00,CLR,,0.00,WeatherDisplay:10.37,2013-07-18 11:05:00,
2013-07-18 06:10:00,73.7,73.7,29.98,ENE,74,0.0,0.0,100,0.00,CLR,,0.00,WeatherDisplay:10.37,2013-07-18 11:10:00,
2013-07-18 06:15:00,73.9,73.9,29.98,ENE,74,0.0,0.0,100,0.00,CLR,,0.00,WeatherDisplay:10.37,2013-07-18 11:15:00,
2013-07-18 06:20:00,74.0,74.0,29.97,ENE,74,0.0,0.0,100,0.00,CLR,,0.00,WeatherDisplay:10.37,2013-07-18 11:20:00,
2013-07-18 06:25:00,74.4,74.4,29.97,ENE,74,0.0,0.0,100,0.00,CLR,,0.00,WeatherDisplay:10.37,2013-07-18 11:25:00,
2013-07-18 06:30:00,74.7,74.7,29.97,ENE,74,0.0,0.0,100,0.00,CLR,,0.00,WeatherDisplay:10.37,2013-07-18 11:30:00,
2013-07-18 06:35:00,74.9,74.6,29.97,ENE,74,0.0,0.0,99,0.00,CLR,,0.00,WeatherDisplay:10.37,2013-07-18 11:35:00,
2013-07-18 06:40:00,74.9,74.6,29.97,ENE,74,0.0,0.0,99,0.00,CLR,,0.00,WeatherDisplay:10.37,2013-07-18 11:40:00,
2013-07-18 06:45:00,75.1,74.8,29.97,ENE,74,0.0,0.0,99,0.00,CLR,,0.00,WeatherDisplay:10.37,2013-07-18 11:45:00,
2013-07-18 06:50:00,75.3,75.0,29.96,ENE,74,0.0,0.0,99,0.00,CLR,,0.00,WeatherDisplay:10.37,2013-07-18 11:50:00,
2013-07-18 06:55:00,75.4,75.1,29.96,ENE,74,0.0,0.0,99,0.00,CLR,,0.00,WeatherDisplay:10.37,2013-07-18 11:55:00,
2013-07-18 07:00:00,75.8,75.2,29.96,ENE,74,0.0,0.0,98,0.00,CLR,,0.00,WeatherDisplay:10.37,2013-07-18 12:00:00,
2013-07-18 07:05:00,76.1,75.5,29.96,ENE,74,0.0,0.0,98,0.00,CLR,,0.00,WeatherDisplay:10.37,2013-07-18 12:05:00,
2013-07-18 07:10:00,76.8,75.9,29.96,ENE,74,0.0,0.0,97,0.00,CLR,,0.00,WeatherDisplay:10.37,2013-07-18 12:10:00,
2013-07-18 07:15:00,77.7,76.2,29.96,ENE,74,0.0,0.0,95,0.00,CLR,,0.00,WeatherDisplay:10.37,2013-07-18 12:15:00,
2013-07-18 07:20:00,78.3,75.8,29.96,ENE,74,0.0,0.0,92,0.00,CLR,,0.00,WeatherDisplay:10.37,2013-07-18 12:20:00,
2013-07-18 07:25:00,78.8,75.6,29.96,ENE,74,0.0,0.0,90,0.00,CLR,,0.00,WeatherDisplay:10.37,2013-07-18 12:25:00,
2013-07-18 07:30:00,79.2,75.3,29.96,ENE,74,0.0,0.0,88,0.00,CLR,,0.00,WeatherDisplay:10.37,2013-07-18 12:30:00,
2013-07-18 07:35:00,79.4,74.8,29.97,ENE,74,0.0,0.0,86,0.00,CLR,,0.00,WeatherDisplay:10.37,2013-07-18 12:35:00,
2013-07-18 07:40:00,79.6,74.3,29.97,ENE,73,0.0,1.0,84,0.00,CLR,,0.00,WeatherDisplay:10.37,2013-07-18 12:40:00,
2013-07-18 07:45:00,79.6,74.3,29.97,West,259,0.0,1.0,84,0.00,CLR,,0.00,WeatherDisplay:10.37,2013-07-18 12:45:00,
2013-07-18 07:50:00,79.8,74.5,29.96,West,259,0.0,0.0,84,0.00,CLR,,0.00,WeatherDisplay:10.37,2013-07-18 12:50:00,
2013-07-18 07:55:00,79.8,74.6,29.96,WSW,258,0.0,2.0,84,0.00,CLR,,0.00,WeatherDisplay:10.37,2013-07-18 12:55:00,
2013-07-18 08:00:00,80.1,75.2,29.96,WSW,256,0.0,2.0,85,0.00,CLR,,0.00,WeatherDisplay:10.37,2013-07-18 13:00:00,
2013-07-18 08:05:00,80.3,75.0,29.96,WSW,256,0.0,2.0,84,0.00,CLR,,0.00,WeatherDisplay:10.37,2013-07-18 13:05:00,
2013-07-18 08:10:00,80.5,75.2,29.96,WSW,257,0.0,1.0,84,0.00,CLR,,0.00,WeatherDisplay:10.37,2013-07-18 13:10:00,
2013-07-18 08:15:00,80.9,75.6,29.96,WSW,256,0.0,1.0,84,0.00,CLR,,0.00,WeatherDisplay:10.37,2013-07-18 13:15:00,
2013-07-18 08:20:00,81.1,75.5,29.96,WSW,256,0.0,2.0,83,0.00,CLR,,0.00,WeatherDisplay:10.37,2013-07-18 13:20:00,
2013-07-18 08:25:00,81.4,75.4,29.96,WSW,256,0.0,3.0,82,0.00,CLR,,0.00,WeatherDisplay:10.37,2013-07-18 13:25:00,
2013-07-18 08:30:00,81.7,75.7,29.96,WSW,256,0.0,3.0,82,0.00,CLR,,0.00,WeatherDisplay:10.37,2013-07-18 13:30:00,
2013-07-18 08:35:00,82.0,75.6,29.96,WSW,256,1.0,3.0,81,0.00,CLR,,0.00,WeatherDisplay:10.37,2013-07-18 13:35:00,
2013-07-18 08:40:00,82.2,75.4,29.96,WSW,254,0.0,4.0,80,0.00,CLR,,0.00,WeatherDisplay:10.37,2013-07-18 13:40:00,
2013-07-18 08:45:00,82.5,76.1,29.96,WSW,251,1.0,5.0,81,0.00,CLR,,0.00,WeatherDisplay:10.37,2013-07-18 13:45:00,
2013-07-18 08:50:00,82.8,75.2,29.96,WSW,245,1.0,4.0,78,0.00,CLR,,0.00,WeatherDisplay:10.37,2013-07-18 13:50:00,
2013-07-18 08:55:00,83.1,75.9,29.96,WSW,239,0.0,1.0,79,0.00,CLR,,0.00,WeatherDisplay:10.37,2013-07-18 13:55:00,
2013-07-18 09:00:00,83.4,75.0,29.96,SW,231,0.0,5.0,76,0.00,CLR,,0.00,WeatherDisplay:10.37,2013-07-18 14:00:00,
2013-07-18 09:05:00,83.8,75.8,29.95,SW,230,0.0,3.0,77,0.00,CLR,,0.00,WeatherDisplay:10.37,2013-07-18 14:05:00,
2013-07-18 09:10:00,84.0,76.4,29.95,SW,231,0.0,3.0,78,0.00,CLR,,0.00,WeatherDisplay:10.37,2013-07-18 14:10:00,
2013-07-18 09:15:00,84.3,75.9,29.95,WSW,238,0.0,0.0,76,0.00,CLR,,0.00,WeatherDisplay:10.37,2013-07-18 14:15:00,
2013-07-18 09:20:00,84.5,76.1,29.95,SW,230,0.0,3.0,76,0.00,CLR,,0.00,WeatherDisplay:10.37,2013-07-18 14:20:00,
2013-07-18 09:25:00,84.9,76.5,29.95,SSW,209,1.0,4.0,76,0.00,CLR,,0.00,WeatherDisplay:10.37,2013-07-18 14:25:00,
2013-07-18 09:30:00,85.1,76.3,29.95,SSW,213,0.0,1.0,75,0.00,CLR,,0.00,WeatherDisplay:10.37,2013-07-18 14:30:00,
2013-07-18 09:35:00,85.3,76.1,29.95,SW,220,0.0,3.0,74,0.00,CLR,,0.00,WeatherDisplay:10.37,2013-07-18 14:35:00,
2013-07-18 09:40:00,85.7,76.0,29.95,SSW,208,0.0,4.0,73,0.00,CLR,,0.00,WeatherDisplay:10.37,2013-07-18 14:40:00,
2013-07-18 09:45:00,85.9,76.2,29.95,SW,224,0.0,4.0,73,0.00,CLR,,0.00,WeatherDisplay:10.37,2013-07-18 14:45:00,
2013-07-18 09:50:00,86.1,76.0,29.95,WSW,240,0.0,1.0,72,0.00,CLR,,0.00,WeatherDisplay:10.37,2013-07-18 14:50:00,
2013-07-18 09:55:00,86.3,75.8,29.95,SSW,201,0.0,5.0,71,0.00,CLR,,0.00,WeatherDisplay:10.37,2013-07-18 14:55:00,
2013-07-18 10:00:00,86.7,76.2,29.95,SSW,201,0.0,1.0,71,0.00,CLR,,0.00,WeatherDisplay:10.37,2013-07-18 15:00:00,
2013-07-18 10:05:00,87.0,76.5,29.94,SW,229,0.0,6.0,71,0.00,CLR,,0.00,WeatherDisplay:10.37,2013-07-18 15:05:00,
2013-07-18 10:10:00,87.2,76.2,29.94,SW,232,1.0,4.0,70,0.00,CLR,,0.00,WeatherDisplay:10.37,2013-07-18 15:10:00,
2013-07-18 10:15:00,87.4,76.4,29.94,SW,231,1.0,4.0,70,0.00,CLR,,0.00,WeatherDisplay:10.37,2013-07-18 15:15:00,
2013-07-18 10:20:00,87.4,76.0,29.94,SW,228,0.0,1.0,69,0.00,CLR,,0.00,WeatherDisplay:10.37,2013-07-18 15:20:00,
2013-07-18 10:25:00,87.6,77.0,29.94,SW,228,0.0,1.0,71,0.00,CLR,,0.00,WeatherDisplay:10.37,2013-07-18 15:25:00,
2013-07-18 10:30:00,87.7,76.2,29.94,SW,228,0.0,3.0,69,0.00,CLR,,0.00,WeatherDisplay:10.37,2013-07-18 15:30:00,
2013-07-18 10:35:00,88.0,77.0,29.94,SW,220,1.0,4.0,70,0.00,CLR,,0.00,WeatherDisplay:10.37,2013-07-18 15:35:00,
2013-07-18 10:40:00,88.1,75.3,29.94,WSW,242,1.0,5.0,66,0.00,CLR,,0.00,WeatherDisplay:10.37,2013-07-18 15:40:00,
2013-07-18 10:45:00,88.2,75.4,29.94,SW,217,1.0,5.0,66,0.00,CLR,,0.00,WeatherDisplay:10.37,2013-07-18 15:45:00,
2013-07-18 10:50:00,88.6,76.2,29.93,SSW,206,0.0,5.0,67,0.00,CLR,,0.00,WeatherDisplay:10.37,2013-07-18 15:50:00,
2013-07-18 10:55:00,88.9,76.9,29.93,SW,224,1.0,5.0,68,0.00,CLR,,0.00,WeatherDisplay:10.37,2013-07-18 15:55:00,
2013-07-18 11:00:00,89.4,77.0,29.93,WSW,241,0.0,3.0,67,0.00,CLR,,0.00,WeatherDisplay:10.37,2013-07-18 16:00:00,
2013-07-18 11:05:00,89.7,75.4,29.93,SW,222,1.0,5.0,63,0.00,CLR,,0.00,WeatherDisplay:10.37,2013-07-18 16:05:00,
2013-07-18 11:10:00,89.7,74.5,29.93,SSW,208,1.0,6.0,61,0.00,CLR,,0.00,WeatherDisplay:10.37,2013-07-18 16:10:00,
2013-07-18 11:20:00,89.9,74.2,29.93,SW,219,2.0,7.0,60,0.00,CLR,,0.00,WeatherDisplay:10.37,2013-07-18 16:20:00,
2013-07-18 11:25:00,90.1,74.8,29.93,SW,218,1.0,6.0,61,0.00,CLR,,0.00,WeatherDisplay:10.37,2013-07-18 16:25:00,
2013-07-18 11:30:00,90.3,74.0,29.93,SW,217,2.0,7.0,59,0.00,CLR,,0.00,WeatherDisplay:10.37,2013-07-18 16:30:00,
2013-07-18 11:35:00,90.0,73.7,29.93,SW,214,2.0,7.0,59,0.00,CLR,,0.00,WeatherDisplay:10.37,2013-07-18 16:35:00,
2013-07-18 11:40:00,90.1,75.8,29.93,SSW,211,1.0,4.0,63,0.00,CLR,,0.00,WeatherDisplay:10.37,2013-07-18 16:40:00,
2013-07-18 11:45:00,90.3,74.0,29.93,SW,214,3.0,6.0,59,0.00,CLR,,0.00,WeatherDisplay:10.37,2013-07-18 16:45:00,
2013-07-18 11:50:00,90.5,76.2,29.92,SW,220,0.0,4.0,63,0.00,CLR,,0.00,WeatherDisplay:10.37,2013-07-18 16:50:00,
2013-07-18 11:55:00,91.0,75.2,29.92,SW,217,3.0,9.0,60,0.00,CLR,,0.00,WeatherDisplay:10.37,2013-07-18 16:55:00,
2013-07-18 12:00:00,91.2,74.4,29.92,SW,214,3.0,9.0,58,0.00,CLR,,0.00,WeatherDisplay:10.37,2013-07-18 17:00:00,
2013-07-18 12:05:00,91.4,75.6,29.92,SSW,208,0.0,9.0,60,0.00,CLR,,0.00,WeatherDisplay:10.37,2013-07-18 17:05:00,
2013-07-18 12:10:00,91.6,75.2,29.92,SW,225,2.0,8.0,59,0.00,CLR,,0.00,WeatherDisplay:10.37,2013-07-18 17:10:00,
2013-07-18 12:15:00,92.1,77.2,29.92,SW,224,2.0,4.0,62,0.00,CLR,,0.00,WeatherDisplay:10.37,2013-07-18 17:15:00,
2013-07-18 12:20:00,92.2,76.3,29.91,SW,224,0.0,5.0,60,0.00,CLR,,0.00,WeatherDisplay:10.37,2013-07-18 17:20:00,
2013-07-18 12:25:00,92.3,76.4,29.91,SW,220,2.0,6.0,60,0.00,CLR,,0.00,WeatherDisplay:10.37,2013-07-18 17:25:00,
2013-07-18 12:30:00,92.3,75.9,29.91,SSW,208,0.0,9.0,59,0.00,CLR,,0.00,WeatherDisplay:10.37,2013-07-18 17:30:00,
2013-07-18 12:35:00,92.1,75.7,29.91,SSW,213,0.0,4.0,59,0.00,CLR,,0.00,WeatherDisplay:10.37,2013-07-18 17:35:00,
2013-07-18 12:40:00,91.6,74.7,29.91,SW,229,0.0,5.0,58,0.00,CLR,,0.00,WeatherDisplay:10.37,2013-07-18 17:40:00,
2013-07-18 12:45:00,91.6,74.7,29.91,SW,230,1.0,6.0,58,0.00,CLR,,0.00,WeatherDisplay:10.37,2013-07-18 17:45:00,
2013-07-18 12:50:00,91.8,76.4,29.90,SW,230,0.0,7.0,61,0.00,CLR,,0.00,WeatherDisplay:10.37,2013-07-18 17:50:00,
2013-07-18 12:55:00,91.8,74.9,29.90,SW,222,1.0,8.0,58,0.00,CLR,,0.00,WeatherDisplay:10.37,2013-07-18 17:55:00,
2013-07-18 13:00:00,91.8,74.4,29.90,SW,226,2.0,7.0,57,0.00,CLR,,0.00,WeatherDisplay:10.37,2013-07-18 18:00:00,
2013-07-18 13:05:00,91.9,75.0,29.90,SW,224,1.0,5.0,58,0.00,CLR,,0.00,WeatherDisplay:10.37,2013-07-18 18:05:00,
2013-07-18 13:10:00,91.8,74.4,29.90,SW,216,1.0,5.0,57,0.00,CLR,,0.00,WeatherDisplay:10.37,2013-07-18 18:10:00,
2013-07-18 13:15:00,91.8,75.9,29.90,SW,218,0.0,4.0,60,0.00,CLR,,0.00,WeatherDisplay:10.37,2013-07-18 18:15:00,
2013-07-18 13:20:00,91.8,73.9,29.89,SW,214,3.0,6.0,56,0.00,CLR,,0.00,WeatherDisplay:10.37,2013-07-18 18:20:00,
2013-07-18 13:25:00,91.6,75.2,29.89,SSW,211,1.0,5.0,59,0.00,CLR,,0.00,WeatherDisplay:10.37,2013-07-18 18:25:00,
2013-07-18 13:30:00,91.7,74.8,29.89,SW,215,3.0,6.0,58,0.00,CLR,,0.00,WeatherDisplay:10.37,2013-07-18 18:30:00,
2013-07-18 13:35:00,92.1,75.2,29.88,SW,215,2.0,7.0,58,0.00,CLR,,0.00,WeatherDisplay:10.37,2013-07-18 18:35:00,
2013-07-18 13:40:00,91.8,74.9,29.88,WSW,239,1.0,6.0,58,0.00,CLR,,0.00,WeatherDisplay:10.37,2013-07-18 18:40:00,
2013-07-18 13:45:00,91.8,74.9,29.88,West,259,2.0,5.0,58,0.00,CLR,,0.00,WeatherDisplay:10.37,2013-07-18 18:45:00,
2013-07-18 13:50:00,92.1,74.1,29.88,West,268,0.0,6.0,56,0.00,CLR,,0.00,WeatherDisplay:10.37,2013-07-18 18:50:00,
2013-07-18 13:55:00,92.2,74.8,29.88,WSW,247,2.0,7.0,57,0.00,CLR,,0.00,WeatherDisplay:10.37,2013-07-18 18:55:00,
2013-07-18 14:05:00,92.5,75.0,29.87,SW,229,1.0,7.0,57,0.00,CLR,,0.00,WeatherDisplay:10.37,2013-07-18 19:05:00,
2013-07-18 14:10:00,92.5,74.5,29.87,SW,218,1.0,8.0,56,0.00,CLR,,0.00,WeatherDisplay:10.37,2013-07-18 19:10:00,
2013-07-18 14:15:00,92.3,74.3,29.87,SSW,211,2.0,7.0,56,0.00,CLR,,0.00,WeatherDisplay:10.37,2013-07-18 19:15:00,
2013-07-18 14:20:00,91.8,74.9,29.86,SSW,213,1.0,6.0,58,0.00,CLR,,0.00,WeatherDisplay:10.37,2013-07-18 19:20:00,
2013-07-18 14:25:00,91.8,73.9,29.86,SW,225,2.0,5.0,56,0.00,CLR,,0.00,WeatherDisplay:10.37,2013-07-18 19:25:00,
2013-07-18 14:35:00,92.1,74.7,29.86,SW,227,2.0,6.0,57,0.00,CLR,,0.00,WeatherDisplay:10.37,2013-07-18 19:35:00,
2013-07-18 14:40:00,92.1,74.1,29.86,SSW,211,3.0,8.0,56,0.00,CLR,,0.00,WeatherDisplay:10.37,2013-07-18 19:40:00,
2013-07-18 14:45:00,92.3,73.8,29.86,SW,232,2.0,7.0,55,0.00,CLR,,0.00,WeatherDisplay:10.37,2013-07-18 19:45:00,
2013-07-18 14:50:00,92.3,73.2,29.85,SW,220,3.0,16.0,54,0.00,CLR,,0.00,WeatherDisplay:10.37,2013-07-18 19:50:00,
2013-07-18 14:55:00,92.1,73.6,29.85,SSW,203,3.0,8.0,55,0.00,CLR,,0.00,WeatherDisplay:10.37,2013-07-18 19:55:00,
2013-07-18 15:00:00,92.1,73.6,29.85,SSW,207,3.0,7.0,55,0.00,CLR,,0.00,WeatherDisplay:10.37,2013-07-18 20:00:00,
2013-07-18 15:05:00,92.3,73.8,29.85,SSW,212,3.0,6.0,55,0.00,CLR,,0.00,WeatherDisplay:10.37,2013-07-18 20:05:00,
2013-07-18 15:10:00,92.3,74.3,29.85,SSW,210,5.0,7.0,56,0.00,CLR,,0.00,WeatherDisplay:10.37,2013-07-18 20:10:00,
2013-07-18 15:15:00,92.1,75.2,29.85,SSW,208,1.0,6.0,58,0.00,CLR,,0.00,WeatherDisplay:10.37,2013-07-18 20:15:00,
2013-07-18 15:20:00,92.2,74.3,29.84,SSW,213,1.0,7.0,56,0.00,CLR,,0.00,WeatherDisplay:10.37,2013-07-18 20:20:00,
2013-07-18 15:25:00,92.3,74.3,29.84,SW,220,2.0,7.0,56,0.00,CLR,,0.00,WeatherDisplay:10.37,2013-07-18 20:25:00,
2013-07-18 15:30:00,92.3,74.9,29.84,SW,214,2.0,7.0,57,0.00,CLR,,0.00,WeatherDisplay:10.37,2013-07-18 20:30:00,
2013-07-18 15:40:00,91.8,74.9,29.84,SSW,207,2.0,6.0,58,0.00,CLR,,0.00,WeatherDisplay:10.37,2013-07-18 20:40:00,
2013-07-18 15:45:00,91.8,73.3,29.84,SW,221,2.0,10.0,55,0.00,CLR,,0.00,WeatherDisplay:10.37,2013-07-18 20:45:00,
2013-07-18 15:50:00,91.8,73.3,29.83,SW,218,3.0,6.0,55,0.00,CLR,,0.00,WeatherDisplay:10.37,2013-07-18 20:50:00,
2013-07-18 15:55:00,91.8,73.3,29.83,SSW,208,3.0,9.0,55,0.00,CLR,,0.00,WeatherDisplay:10.37,2013-07-18 20:55:00,
2013-07-18 16:00:00,91.8,73.9,29.83,SW,220,3.0,8.0,56,0.00,CLR,,0.00,WeatherDisplay:10.37,2013-07-18 21:00:00,
2013-07-18 16:05:00,91.8,73.9,29.82,SW,218,3.0,7.0,56,0.00,CLR,,0.00,WeatherDisplay:10.37,2013-07-18 21:05:00,
2013-07-18 16:10:00,91.6,73.1,29.82,SW,231,1.0,8.0,55,0.00,CLR,,0.00,WeatherDisplay:10.37,2013-07-18 21:10:00,
2013-07-18 16:15:00,91.7,73.8,29.82,SW,230,2.0,6.0,56,0.00,CLR,,0.00,WeatherDisplay:10.37,2013-07-18 21:15:00,
2013-07-18 16:20:00,91.5,73.1,29.82,SW,220,3.0,12.0,55,0.00,CLR,,0.00,WeatherDisplay:10.37,2013-07-18 21:20:00,
2013-07-18 16:25:00,91.2,73.3,29.82,SW,222,3.0,8.0,56,0.00,CLR,,0.00,WeatherDisplay:10.37,2013-07-18 21:25:00,
2013-07-18 16:30:00,91.2,74.9,29.82,SW,219,3.0,7.0,59,0.00,CLR,,0.00,WeatherDisplay:10.37,2013-07-18 21:30:00,
2013-07-18 16:35:00,91.2,74.9,29.81,SW,224,0.0,5.0,59,0.00,CLR,,0.00,WeatherDisplay:10.37,2013-07-18 21:35:00,
2013-07-18 16:40:00,91.0,74.2,29.81,SW,217,2.0,8.0,58,0.00,CLR,,0.00,WeatherDisplay:10.37,2013-07-18 21:40:00,
2013-07-18 16:45:00,90.5,74.2,29.81,SW,214,3.0,7.0,59,0.00,CLR,,0.00,WeatherDisplay:10.37,2013-07-18 21:45:00,
2013-07-18 16:50:00,90.3,74.5,29.80,SSW,211,2.0,6.0,60,0.00,CLR,,0.00,WeatherDisplay:10.37,2013-07-18 21:50:00,
2013-07-18 16:55:00,90.1,73.3,29.80,SSW,212,5.0,12.0,58,0.00,CLR,,0.00,WeatherDisplay:10.37,2013-07-18 21:55:00,
2013-07-18 17:00:00,90.1,73.8,29.80,SW,216,2.0,7.0,59,0.00,CLR,,0.00,WeatherDisplay:10.37,2013-07-18 22:00:00,
2013-07-18 17:05:00,90.1,73.8,29.80,SW,214,3.0,7.0,59,0.00,CLR,,0.00,WeatherDisplay:10.37,2013-07-18 22:05:00,
2013-07-18 17:10:00,90.1,73.8,29.80,SW,215,2.0,5.0,59,0.00,CLR,,0.00,WeatherDisplay:10.37,2013-07-18 22:10:00,
2013-07-18 17:15:00,90.1,73.3,29.80,SW,219,3.0,8.0,58,0.00,CLR,,0.00,WeatherDisplay:10.37,2013-07-18 22:15:00,
2013-07-18 17:20:00,90.1,73.8,29.80,SW,219,3.0,9.0,59,0.00,CLR,,0.00,WeatherDisplay:10.37,2013-07-18 22:20:00,
2013-07-18 17:25:00,90.3,74.0,29.80,SW,216,2.0,8.0,59,0.00,CLR,,0.00,WeatherDisplay:10.37,2013-07-18 22:25:00,
2013-07-18 17:30:00,90.3,74.0,29.80,SW,214,3.0,7.0,59,0.00,CLR,,0.00,WeatherDisplay:10.37,2013-07-18 22:30:00,
2013-07-18 17:40:00,90.1,73.8,29.79,SW,224,1.0,6.0,59,0.00,CLR,,0.00,WeatherDisplay:10.37,2013-07-18 22:40:00,
2013-07-18 17:45:00,90.1,74.3,29.79,SSW,213,3.0,9.0,60,0.00,CLR,,0.00,WeatherDisplay:10.37,2013-07-18 22:45:00,
2013-07-18 17:50:00,89.9,73.7,29.79,SSW,205,3.0,8.0,59,0.00,CLR,,0.00,WeatherDisplay:10.37,2013-07-18 22:50:00,
2013-07-18 18:00:00,89.7,73.0,29.79,SSW,210,3.0,7.0,58,0.00,CLR,,0.00,WeatherDisplay:10.37,2013-07-18 23:00:00,
2013-07-18 18:05:00,89.5,73.3,29.78,SW,219,3.0,6.0,59,0.00,CLR,,0.00,WeatherDisplay:10.37,2013-07-18 23:05:00,
2013-07-18 18:10:00,89.3,73.1,29.78,SW,221,2.0,6.0,59,0.00,CLR,,0.00,WeatherDisplay:10.37,2013-07-18 23:10:00,
2013-07-18 18:15:00,89.3,74.1,29.78,SW,217,2.0,5.0,61,0.00,CLR,,0.00,WeatherDisplay:10.37,2013-07-18 23:15:00,
2013-07-18 18:20:00,89.3,74.6,29.78,SW,220,1.0,5.0,62,0.00,CLR,,0.00,WeatherDisplay:10.37,2013-07-18 23:20:00,
2013-07-18 18:25:00,89.0,74.3,29.78,SSW,213,2.0,5.0,62,0.00,CLR,,0.00,WeatherDisplay:10.37,2013-07-18 23:25:00,
2013-07-18 18:30:00,88.9,73.2,29.78,SW,220,3.0,9.0,60,0.00,CLR,,0.00,WeatherDisplay:10.37,2013-07-18 23:30:00,
2013-07-18 18:35:00,88.6,73.5,29.77,WSW,238,2.0,8.0,61,0.00,CLR,,0.00,WeatherDisplay:10.37,2013-07-18 23:35:00,
2013-07-18 18:40:00,88.4,73.7,29.77,SW,231,1.0,7.0,62,0.00,CLR,,0.00,WeatherDisplay:10.37,2013-07-18 23:40:00,
2013-07-18 18:45:00,88.4,73.7,29.77,SW,214,2.0,4.0,62,0.00,CLR,,0.00,WeatherDisplay:10.37,2013-07-18 23:45:00,
2013-07-18 18:50:00,88.2,73.5,29.77,SSW,206,3.0,6.0,62,0.00,CLR,,0.00,WeatherDisplay:10.37,2013-07-18 23:50:00,
2013-07-18 18:55:00,88.1,74.0,29.77,SW,221,3.0,6.0,63,0.00,CLR,,0.00,WeatherDisplay:10.37,2013-07-18 23:55:00,
2013-07-18 19:00:00,88.0,73.8,29.77,SW,233,2.0,6.0,63,0.00,CLR,,0.00,WeatherDisplay:10.37,2013-07-19 00:00:00,
2013-07-18 19:05:00,87.8,73.6,29.77,SW,230,2.0,5.0,63,0.00,CLR,,0.00,WeatherDisplay:10.37,2013-07-19 00:05:00,
2013-07-18 19:10:00,87.6,73.4,29.77,SW,214,0.0,6.0,63,0.00,CLR,,0.00,WeatherDisplay:10.37,2013-07-19 00:10:00,
2013-07-18 19:15:00,87.6,73.9,29.77,SW,218,1.0,4.0,64,0.00,CLR,,0.00,WeatherDisplay:10.37,2013-07-19 00:15:00,
2013-07-18 19:20:00,87.4,73.7,29.77,SSW,212,1.0,4.0,64,0.00,CLR,,0.00,WeatherDisplay:10.37,2013-07-19 00:20:00,
2013-07-18 19:25:00,87.4,73.7,29.77,SW,219,2.0,6.0,64,0.00,CLR,,0.00,WeatherDisplay:10.37,2013-07-19 00:25:00,
2013-07-18 19:30:00,87.2,73.5,29.77,SW,220,1.0,5.0,64,0.00,CLR,,0.00,WeatherDisplay:10.37,2013-07-19 00:30:00,
2013-07-18 19:35:00,87.2,74.0,29.76,SW,215,2.0,5.0,65,0.00,CLR,,0.00,WeatherDisplay:10.37,2013-07-19 00:35:00,
2013-07-18 19:40:00,87.0,73.3,29.76,SW,220,2.0,5.0,64,0.00,CLR,,0.00,WeatherDisplay:10.37,2013-07-19 00:40:00,
2013-07-18 19:45:00,86.7,73.1,29.76,SW,223,2.0,5.0,64,0.00,CLR,,0.00,WeatherDisplay:10.37,2013-07-19 00:45:00,
2013-07-18 19:50:00,86.5,72.9,29.76,SW,231,2.0,5.0,64,0.00,CLR,,0.00,WeatherDisplay:10.37,2013-07-19 00:50:00,
2013-07-18 19:55:00,86.4,73.7,29.76,WSW,241,1.0,5.0,66,0.00,CLR,,0.00,WeatherDisplay:10.37,2013-07-19 00:55:00,
2013-07-18 20:00:00,86.1,73.4,29.76,SW,230,0.0,6.0,66,0.00,CLR,,0.00,WeatherDisplay:10.37,2013-07-19 01:00:00,
2013-07-18 20:05:00,85.9,73.7,29.76,SSW,213,1.0,4.0,67,0.00,CLR,,0.00,WeatherDisplay:10.37,2013-07-19 01:05:00,
2013-07-18 20:10:00,85.6,73.9,29.76,SSW,210,1.0,5.0,68,0.00,CLR,,0.00,WeatherDisplay:10.37,2013-07-19 01:10:00,
2013-07-18 20:15:00,85.3,73.5,29.76,SSW,206,1.0,5.0,68,0.00,CLR,,0.00,WeatherDisplay:10.37,2013-07-19 01:15:00,
2013-07-18 20:20:00,84.9,73.6,29.75,SSW,207,2.0,8.0,69,0.00,CLR,,0.00,WeatherDisplay:10.37,2013-07-19 01:20:00,
2013-07-18 20:25:00,84.6,73.3,29.75,SW,220,2.0,6.0,69,0.00,CLR,,0.00,WeatherDisplay:10.37,2013-07-19 01:25:00,
2013-07-18 20:30:00,84.3,73.0,29.75,SW,225,2.0,5.0,69,0.00,CLR,,0.00,WeatherDisplay:10.37,2013-07-19 01:30:00,
2013-07-18 20:40:00,84.1,73.3,29.75,SW,219,3.0,5.0,70,0.00,CLR,,0.00,WeatherDisplay:10.37,2013-07-19 01:40:00,
2013-07-18 20:45:00,84.0,73.2,29.75,SW,218,2.0,5.0,70,0.00,CLR,,0.00,WeatherDisplay:10.37,2013-07-19 01:45:00,
2013-07-18 20:50:00,83.8,73.4,29.74,SW,215,2.0,5.0,71,0.00,CLR,,0.00,WeatherDisplay:10.37,2013-07-19 01:50:00,
2013-07-18 20:55:00,83.6,73.6,29.74,SSW,211,1.0,4.0,72,0.00,CLR,,0.00,WeatherDisplay:10.37,2013-07-19 01:55:00,
2013-07-18 21:00:00,83.4,73.8,29.74,SSW,209,0.0,4.0,73,0.00,CLR,,0.00,WeatherDisplay:10.37,2013-07-19 02:00:00,
2013-07-18 21:05:00,83.0,73.9,29.75,SW,217,0.0,5.0,74,0.00,CLR,,0.00,WeatherDisplay:10.37,2013-07-19 02:05:00,
2013-07-18 21:10:00,82.8,74.1,29.75,SW,220,1.0,4.0,75,0.00,CLR,,0.00,WeatherDisplay:10.37,2013-07-19 02:10:00,
2013-07-18 21:15:00,82.5,74.1,29.75,SW,218,0.0,3.0,76,0.00,CLR,,0.00,WeatherDisplay:10.37,2013-07-19 02:15:00,
2013-07-18 21:20:00,82.2,73.9,29.75,SW,228,1.0,3.0,76,0.00,CLR,,0.00,WeatherDisplay:10.37,2013-07-19 02:20:00,
2013-07-18 21:30:00,81.8,73.9,29.75,WSW,238,1.0,3.0,77,0.00,CLR,,0.00,WeatherDisplay:10.37,2013-07-19 02:30:00,
2013-07-18 21:35:00,81.8,74.3,29.75,SW,229,1.0,4.0,78,0.00,CLR,,0.00,WeatherDisplay:10.37,2013-07-19 02:35:00,
2013-07-18 21:40:00,81.8,74.2,29.75,SSW,210,1.0,4.0,78,0.00,CLR,,0.00,WeatherDisplay:10.37,2013-07-19 02:40:00,
2013-07-18 21:45:00,81.6,74.1,29.75,SSW,209,0.0,4.0,78,0.00,CLR,,0.00,WeatherDisplay:10.37,2013-07-19 02:45:00,
2013-07-18 21:50:00,81.6,74.5,29.76,SSW,196,1.0,4.0,79,0.00,CLR,,0.00,WeatherDisplay:10.37,2013-07-19 02:50:00,
2013-07-18 21:55:00,81.4,74.3,29.76,South,188,1.0,5.0,79,0.00,CLR,,0.00,WeatherDisplay:10.37,2013-07-19 02:55:00,
2013-07-18 22:00:00,81.2,74.4,29.76,SSW,199,2.0,5.0,80,0.00,CLR,,0.00,WeatherDisplay:10.37,2013-07-19 03:00:00,
2013-07-18 22:05:00,81.2,74.4,29.76,South,181,0.0,5.0,80,0.00,CLR,,0.00,WeatherDisplay:10.37,2013-07-19 03:05:00,
2013-07-18 22:10:00,81.1,74.3,29.76,South,189,1.0,4.0,80,0.00,CLR,,0.00,WeatherDisplay:10.37,2013-07-19 03:10:00,
2013-07-18 22:15:00,81.1,74.3,29.76,SW,216,1.0,3.0,80,0.00,CLR,,0.00,WeatherDisplay:10.37,2013-07-19 03:15:00,
2013-07-18 22:20:00,81.1,74.0,29.76,SW,236,1.0,4.0,79,0.00,CLR,,0.00,WeatherDisplay:10.37,2013-07-19 03:20:00,
2013-07-18 22:25:00,81.1,74.3,29.76,WSW,239,1.0,3.0,80,0.00,CLR,,0.00,WeatherDisplay:10.37,2013-07-19 03:25:00,
2013-07-18 22:30:00,80.9,74.1,29.76,WSW,240,1.0,5.0,80,0.00,CLR,,0.00,WeatherDisplay:10.37,2013-07-19 03:30:00,
2013-07-18 22:35:00,80.7,74.0,29.76,SW,222,1.0,7.0,80,0.00,CLR,,0.00,WeatherDisplay:10.37,2013-07-19 03:35:00,
2013-07-18 22:40:00,80.5,74.1,29.76,SSW,205,0.0,3.0,81,0.00,CLR,,0.00,WeatherDisplay:10.37,2013-07-19 03:40:00,
2013-07-18 22:45:00,80.3,73.9,29.76,SSW,213,2.0,5.0,81,0.00,CLR,,0.00,WeatherDisplay:10.37,2013-07-19 03:45:00,
2013-07-18 22:50:00,80.1,74.1,29.75,SW,227,0.0,5.0,82,0.00,CLR,,0.00,WeatherDisplay:10.37,2013-07-19 03:50:00,
2013-07-18 22:55:00,79.9,73.9,29.75,SW,226,2.0,4.0,82,0.00,CLR,,0.00,WeatherDisplay:10.37,2013-07-19 03:55:00,
2013-07-18 23:00:00,79.8,74.2,29.75,SW,231,2.0,4.0,83,0.00,CLR,,0.00,WeatherDisplay:10.37,2013-07-19 04:00:00,
2013-07-18 23:05:00,79.8,74.2,29.75,SW,224,2.0,4.0,83,0.00,CLR,,0.00,WeatherDisplay:10.37,2013-07-19 04:05:00,
2013-07-18 23:10:00,79.8,74.2,29.75,SSW,212,0.0,4.0,83,0.00,CLR,,0.00,WeatherDisplay:10.37,2013-07-19 04:10:00,
2013-07-18 23:15:00,79.6,74.0,29.75,SSW,207,1.0,3.0,83,0.00,CLR,,0.00,WeatherDisplay:10.37,2013-07-19 04:15:00,
2013-07-18 23:20:00,79.6,74.3,29.74,SSW,200,0.0,3.0,84,0.00,CLR,,0.00,WeatherDisplay:10.37,2013-07-19 04:20:00,
2013-07-18 23:25:00,79.4,74.1,29.74,SSW,200,1.0,4.0,84,0.00,CLR,,0.00,WeatherDisplay:10.37,2013-07-19 04:25:00,
2013-07-18 23:30:00,79.2,73.9,29.74,SSW,200,1.0,6.0,84,0.00,CLR,,0.00,WeatherDisplay:10.37,2013-07-19 04:30:00,
2013-07-18 23:35:00,79.2,73.9,29.74,SSW,200,0.0,5.0,84,0.00,CLR,,0.00,WeatherDisplay:10.37,2013-07-19 04:35:00,
2013-07-18 23:40:00,79.0,73.7,29.74,SSW,198,1.0,4.0,84,0.00,CLR,,0.00,WeatherDisplay:10.37,2013-07-19 04:40:00,
2013-07-18 23:45:00,79.0,74.1,29.74,SSW,193,2.0,6.0,85,0.00,CLR,,0.00,WeatherDisplay:10.37,2013-07-19 04:45:00,
2013-07-18 23:50:00,78.8,73.9,29.74,SSW,196,2.0,6.0,85,0.00,CLR,,0.00,WeatherDisplay:10.37,2013-07-19 04:50:00,
2013-07-18 23:55:00,78.6,74.1,29.74,SSW,208,2.0,6.0,86,0.00,CLR,,0.00,WeatherDisplay:10.37,2013-07-19 04:55:00,